Gordon Heights, New York
Current Conditions -  °F | °C
As of 6:56 AM on Monday 22 Dec 2014 (Local Time) from KHWV Reporting Station
Overcast Overcast  
Wind Chill:   Ceiling: 700
Heat Index:   Visibility: 10mi
Dew Point:   Wind: 5mph
Humidity: 93%   Direction: 30°NNE
Pressure: 30.32"   Gusts: NA
Location:  40.8228°N, 72.9822°W
Report Text: KHWV 221156Z AUTO 03004KT 10SM BKN007 OVC030 03/02 A3032 RMK AO2 CIG 004V009 SLP266 T00330022 10033 20028 56001 TSNO
Loading
Personal Weather Stations






























Interactive Weather Map New forecast layout! Learn more

10-Day Weather Forecast

Advertisements
Track Severe Weather on mobile